Time;durP1;ratioP1;P1;durP2;ratioP2;P2;SDS_P1;SDS_P2;PMS_P1;PMS_P2;Temp;Humidity;BMP_temperature;BMP_pressure;BME280_temperature;BME280_humidity;BME280_pressure;Samples;Min_cycle;Max_cycle;Signal;HPM_P1;HPM_P2
2022/02/13 00:00:20;;;;;;;6.20;3.00;;;;;;;;;;5075152;28;20024;-60
2022/02/13 00:02:46;;;;;;;6.07;3.00;;;;;;;;;;5075439;28;20357;-61
2022/02/13 00:05:13;;;;;;;5.90;2.97;;;;;;;;;;5075257;28;20027;-61
2022/02/13 00:07:39;;;;;;;6.57;3.03;;;;;;;;;;5057241;28;20021;-60
2022/02/13 00:10:10;;;;;;;5.70;2.63;;;;;;;;;;5075275;28;20526;-60
2022/02/13 00:12:36;;;;;;;7.15;3.30;;;;;;;;;;5075213;28;20036;-61
2022/02/13 00:15:02;;;;;;;5.72;2.78;;;;;;;;;;5075108;28;20104;-62
2022/02/13 00:17:28;;;;;;;6.07;2.83;;;;;;;;;;5075032;28;20020;-60
2022/02/13 00:19:54;;;;;;;6.47;2.97;;;;;;;;;;5074856;28;20337;-60
2022/02/13 00:22:21;;;;;;;5.72;2.65;;;;;;;;;;5074770;28;20522;-60
2022/02/13 00:24:47;;;;;;;6.57;3.10;;;;;;;;;;5074721;28;20052;-61
2022/02/13 00:27:14;;;;;;;7.53;3.67;;;;;;;;;;5074840;28;20488;-60
2022/02/13 00:29:40;;;;;;;6.55;3.60;;;;;;;;;;5074720;28;20070;-61
2022/02/13 00:32:07;;;;;;;7.05;2.95;;;;;;;;;;5074711;28;20027;-62
2022/02/13 00:34:33;;;;;;;7.85;3.38;;;;;;;;;;5074648;28;20075;-61
2022/02/13 00:37:00;;;;;;;5.28;2.67;;;;;;;;;;5074683;28;20052;-60
2022/02/13 00:39:27;;;;;;;5.03;2.50;;;;;;;;;;5074521;28;20487;-62
2022/02/13 00:41:53;;;;;;;6.35;3.28;;;;;;;;;;5074438;28;20083;-62
2022/02/13 00:44:19;;;;;;;4.65;2.40;;;;;;;;;;5074604;28;20271;-61
2022/02/13 00:46:45;;;;;;;5.50;2.78;;;;;;;;;;5056633;28;20028;-62
2022/02/13 00:49:12;;;;;;;5.60;2.83;;;;;;;;;;5056191;28;20379;-61
2022/02/13 00:51:38;;;;;;;6.47;3.00;;;;;;;;;;5074250;28;20024;-61
2022/02/13 00:54:04;;;;;;;5.32;2.60;;;;;;;;;;5074112;28;20107;-62
2022/02/13 00:56:30;;;;;;;5.25;2.58;;;;;;;;;;5073999;28;20483;-63
2022/02/13 00:58:56;;;;;;;6.07;2.67;;;;;;;;;;5074023;28;20019;-61
2022/02/13 01:01:22;;;;;;;6.47;2.90;;;;;;;;;;5073916;28;20523;-61
2022/02/13 01:03:48;;;;;;;6.70;3.30;;;;;;;;;;5074296;28;20024;-61
2022/02/13 01:06:14;;;;;;;5.10;2.50;;;;;;;;;;5073671;28;20502;-62
2022/02/13 01:08:40;;;;;;;6.90;2.90;;;;;;;;;;5074195;28;20063;-62
2022/02/13 01:11:07;;;;;;;5.97;3.03;;;;;;;;;;5074041;28;20024;-62
2022/02/13 01:13:34;;;;;;;5.93;2.58;;;;;;;;;;5073861;28;20021;-61
2022/02/13 01:16:01;;;;;;;5.90;2.60;;;;;;;;;;5074106;28;20099;-62
2022/02/13 01:18:27;;;;;;;5.60;2.50;;;;;;;;;;5073888;28;20017;-62
2022/02/13 01:20:53;;;;;;;5.30;2.58;;;;;;;;;;5074015;28;20029;-63
2022/02/13 01:23:19;;;;;;;5.70;2.50;;;;;;;;;;5073849;28;20525;-61
2022/02/13 01:25:45;;;;;;;4.80;2.25;;;;;;;;;;5073940;28;20055;-61
2022/02/13 01:28:12;;;;;;;6.00;2.72;;;;;;;;;;5073862;28;20085;-61
2022/02/13 01:30:38;;;;;;;5.00;2.40;;;;;;;;;;5073758;28;20056;-62
2022/02/13 01:33:04;;;;;;;5.95;2.58;;;;;;;;;;5073808;28;20082;-61
2022/02/13 01:35:30;;;;;;;6.10;2.67;;;;;;;;;;5073798;28;20071;-60
2022/02/13 01:37:57;;;;;;;6.78;2.92;;;;;;;;;;5073567;28;20536;-61
2022/02/13 01:40:23;;;;;;;5.95;2.50;;;;;;;;;;5055653;28;20025;-61
2022/02/13 01:42:49;;;;;;;5.00;2.45;;;;;;;;;;5073395;28;20021;-60
2022/02/13 01:45:15;;;;;;;5.03;2.10;;;;;;;;;;5073320;28;20029;-62
2022/02/13 01:47:41;;;;;;;5.85;2.20;;;;;;;;;;5073441;28;20107;-62
2022/02/13 01:50:09;;;;;;;4.80;2.20;;;;;;;;;;5073177;28;20388;-60
2022/02/13 01:52:35;;;;;;;5.57;2.55;;;;;;;;;;5073305;28;20027;-59
2022/02/13 01:55:02;;;;;;;5.80;2.50;;;;;;;;;;5073197;28;20118;-59
2022/02/13 01:57:28;;;;;;;5.63;2.95;;;;;;;;;;5073267;28;20036;-61
2022/02/13 01:59:56;;;;;;;5.00;2.95;;;;;;;;;;5073183;28;20290;-59
2022/02/13 02:02:22;;;;;;;5.78;2.60;;;;;;;;;;5072849;28;20051;-61
2022/02/13 02:04:50;;;;;;;5.82;2.70;;;;;;;;;;5073021;28;20074;-61
2022/02/13 02:07:16;;;;;;;5.03;2.30;;;;;;;;;;5072854;28;20013;-62
2022/02/13 02:09:46;;;;;;;6.47;2.70;;;;;;;;;;5073902;28;20035;-62
2022/02/13 02:12:12;;;;;;;5.20;2.38;;;;;;;;;;5093263;28;20020;-62
2022/02/13 02:14:38;;;;;;;5.25;2.38;;;;;;;;;;5093188;28;20040;-60
2022/02/13 02:17:05;;;;;;;5.30;2.28;;;;;;;;;;5092704;28;20047;-59
2022/02/13 02:19:31;;;;;;;6.63;2.50;;;;;;;;;;5092639;28;20036;-62
2022/02/13 02:21:58;;;;;;;5.70;2.58;;;;;;;;;;5093031;28;20020;-60
2022/02/13 02:24:24;;;;;;;5.75;2.67;;;;;;;;;;5093026;28;20425;-61
2022/02/13 02:26:50;;;;;;;4.47;2.55;;;;;;;;;;5092968;28;20024;-62
2022/02/13 02:29:17;;;;;;;5.60;2.35;;;;;;;;;;5093112;28;20031;-61
2022/02/13 02:31:43;;;;;;;5.53;2.97;;;;;;;;;;5092856;28;20059;-62
2022/02/13 02:34:09;;;;;;;4.85;2.42;;;;;;;;;;5074634;28;20032;-62
2022/02/13 02:36:35;;;;;;;6.03;2.35;;;;;;;;;;5092754;28;20024;-61
2022/02/13 02:39:01;;;;;;;4.97;2.38;;;;;;;;;;5092700;28;20024;-62
2022/02/13 02:41:27;;;;;;;5.53;2.50;;;;;;;;;;5092655;28;20020;-60
2022/02/13 02:43:53;;;;;;;7.15;2.95;;;;;;;;;;5092364;28;20489;-60
2022/02/13 02:46:19;;;;;;;3.95;1.90;;;;;;;;;;5092486;28;20020;-60
2022/02/13 02:48:45;;;;;;;6.25;2.58;;;;;;;;;;5092491;28;20070;-62
2022/02/13 02:51:11;;;;;;;4.93;2.25;;;;;;;;;;5092208;28;20656;-60
2022/02/13 02:53:37;;;;;;;5.20;2.47;;;;;;;;;;5092220;28;20558;-62
2022/02/13 02:56:04;;;;;;;5.93;2.78;;;;;;;;;;5092351;28;20024;-62
2022/02/13 02:58:31;;;;;;;5.60;2.60;;;;;;;;;;5092513;28;20051;-60
2022/02/13 03:00:57;;;;;;;5.72;2.50;;;;;;;;;;5092271;28;20044;-61
2022/02/13 03:03:24;;;;;;;5.50;2.67;;;;;;;;;;5092339;28;20030;-61
2022/02/13 03:05:52;;;;;;;6.00;2.50;;;;;;;;;;5092114;28;20052;-59
2022/02/13 03:08:19;;;;;;;4.38;2.20;;;;;;;;;;5092106;28;20479;-62
2022/02/13 03:10:45;;;;;;;5.60;2.20;;;;;;;;;;5092154;28;20031;-61
2022/02/13 03:13:14;;;;;;;5.55;2.65;;;;;;;;;;5092039;28;20463;-60
2022/02/13 03:15:40;;;;;;;5.25;2.95;;;;;;;;;;5092113;28;20066;-60
2022/02/13 03:18:06;;;;;;;4.45;2.50;;;;;;;;;;5092036;28;20028;-61
2022/02/13 03:20:32;;;;;;;4.07;2.00;;;;;;;;;;5092011;28;20044;-60
2022/02/13 03:22:58;;;;;;;4.50;2.25;;;;;;;;;;5092091;28;20063;-60
2022/02/13 03:25:24;;;;;;;4.03;2.35;;;;;;;;;;5092016;28;20028;-61
2022/02/13 03:27:51;;;;;;;5.43;2.53;;;;;;;;;;5091976;28;20025;-60
2022/02/13 03:30:17;;;;;;;4.88;2.40;;;;;;;;;;5091648;28;20028;-61
2022/02/13 03:32:43;;;;;;;5.03;2.08;;;;;;;;;;5073720;28;20379;-60
2022/02/13 03:35:09;;;;;;;4.55;2.22;;;;;;;;;;5091603;28;20135;-60
2022/02/13 03:37:37;;;;;;;5.57;2.60;;;;;;;;;;5073683;28;20012;-61
2022/02/13 03:40:04;;;;;;;4.97;2.22;;;;;;;;;;5091895;28;20023;-60
2022/02/13 03:42:30;;;;;;;5.65;2.13;;;;;;;;;;5091755;28;20026;-62
2022/02/13 03:44:56;;;;;;;5.07;2.45;;;;;;;;;;5091722;28;20020;-62
2022/02/13 03:47:22;;;;;;;5.72;2.30;;;;;;;;;;5091591;28;20035;-62
2022/02/13 03:49:48;;;;;;;4.45;2.40;;;;;;;;;;5091668;28;20184;-62
2022/02/13 03:52:14;;;;;;;5.25;2.30;;;;;;;;;;5091622;28;20129;-60
2022/02/13 03:54:40;;;;;;;4.05;1.98;;;;;;;;;;5091590;28;20032;-60
2022/02/13 03:57:06;;;;;;;4.43;2.22;;;;;;;;;;5091618;28;20024;-60
2022/02/13 03:59:32;;;;;;;4.50;2.40;;;;;;;;;;5091505;28;20028;-62
2022/02/13 04:01:59;;;;;;;6.50;2.65;;;;;;;;;;5091259;28;20059;-60
2022/02/13 04:04:25;;;;;;;4.55;1.92;;;;;;;;;;5091469;28;20034;-61
2022/02/13 04:06:51;;;;;;;4.30;2.15;;;;;;;;;;5091503;28;20021;-62
2022/02/13 04:09:17;;;;;;;5.57;2.30;;;;;;;;;;5091651;28;20023;-62
2022/02/13 04:11:43;;;;;;;5.93;1.85;;;;;;;;;;5091418;28;20100;-61
2022/02/13 04:14:09;;;;;;;4.53;2.13;;;;;;;;;;5091375;28;20043;-60
2022/02/13 04:16:35;;;;;;;6.40;2.50;;;;;;;;;;5091223;28;20059;-60
2022/02/13 04:19:02;;;;;;;4.72;2.42;;;;;;;;;;5091114;28;20016;-60
2022/02/13 04:21:28;;;;;;;4.57;1.90;;;;;;;;;;5091271;28;20024;-62
2022/02/13 04:23:54;;;;;;;5.68;2.33;;;;;;;;;;5091304;28;20075;-62
2022/02/13 04:26:20;;;;;;;5.60;2.40;;;;;;;;;;5091353;28;20029;-60
2022/02/13 04:28:46;;;;;;;4.82;2.20;;;;;;;;;;5091379;28;20175;-60
2022/02/13 04:31:13;;;;;;;5.35;2.47;;;;;;;;;;5091304;28;20121;-59
2022/02/13 04:33:39;;;;;;;6.57;2.40;;;;;;;;;;5091125;28;20043;-61
2022/02/13 04:36:05;;;;;;;4.90;2.20;;;;;;;;;;5091297;28;20048;-62
2022/02/13 04:38:31;;;;;;;4.90;1.98;;;;;;;;;;5091276;28;20047;-61
2022/02/13 04:40:57;;;;;;;4.25;1.90;;;;;;;;;;5092403;28;20251;-62
2022/02/13 04:43:24;;;;;;;4.95;2.38;;;;;;;;;;5076937;28;20020;-62
2022/02/13 04:45:50;;;;;;;3.72;1.70;;;;;;;;;;5076850;28;20020;-61
2022/02/13 04:48:16;;;;;;;6.30;2.55;;;;;;;;;;5094978;28;20051;-62
2022/02/13 04:50:42;;;;;;;4.25;2.10;;;;;;;;;;5094783;28;20020;-61
2022/02/13 04:53:08;;;;;;;4.65;2.05;;;;;;;;;;5094539;28;20394;-61
2022/02/13 04:55:34;;;;;;;4.65;2.33;;;;;;;;;;5094534;28;20119;-62
2022/02/13 04:58:03;;;;;;;5.32;2.00;;;;;;;;;;5094551;28;20020;-61
2022/02/13 05:00:29;;;;;;;6.18;2.60;;;;;;;;;;5094387;28;20024;-60
2022/02/13 05:02:55;;;;;;;4.82;1.90;;;;;;;;;;5094666;28;20044;-62
2022/02/13 05:05:22;;;;;;;5.03;2.30;;;;;;;;;;5094505;28;20085;-62
2022/02/13 05:07:48;;;;;;;4.15;2.17;;;;;;;;;;5076731;28;20024;-60
2022/02/13 05:10:14;;;;;;;5.18;2.33;;;;;;;;;;5094446;28;20031;-62
2022/02/13 05:12:40;;;;;;;5.38;2.30;;;;;;;;;;5094240;28;20024;-63
2022/02/13 05:15:07;;;;;;;4.65;2.47;;;;;;;;;;5094255;28;20035;-61
2022/02/13 05:17:37;;;;;;;5.05;2.40;;;;;;;;;;5094486;28;20095;-61
2022/02/13 05:20:04;;;;;;;5.20;2.33;;;;;;;;;;5094434;28;20111;-61
2022/02/13 05:22:30;;;;;;;4.38;2.20;;;;;;;;;;5094210;28;20497;-61
2022/02/13 05:24:56;;;;;;;4.45;2.13;;;;;;;;;;5094104;28;20101;-60
2022/02/13 05:27:22;;;;;;;5.63;2.33;;;;;;;;;;5094065;28;20024;-61
2022/02/13 05:29:48;;;;;;;6.88;2.60;;;;;;;;;;5094050;28;20027;-61
2022/02/13 05:32:14;;;;;;;4.82;1.90;;;;;;;;;;5094032;28;20080;-60
2022/02/13 05:34:40;;;;;;;5.15;2.47;;;;;;;;;;5093969;28;20064;-61
2022/02/13 05:37:07;;;;;;;5.22;2.72;;;;;;;;;;5094084;28;20056;-62
2022/02/13 05:39:33;;;;;;;5.47;2.47;;;;;;;;;;5093902;28;20059;-62
2022/02/13 05:41:59;;;;;;;4.93;2.30;;;;;;;;;;5093603;28;20042;-60
2022/02/13 05:44:25;;;;;;;4.50;2.20;;;;;;;;;;5093625;28;20020;-61
2022/02/13 05:46:51;;;;;;;4.53;2.30;;;;;;;;;;5093865;28;20099;-61
2022/02/13 05:49:17;;;;;;;7.72;2.28;;;;;;;;;;5093785;28;20097;-61
2022/02/13 05:51:45;;;;;;;4.03;2.05;;;;;;;;;;5093284;28;20386;-60
2022/02/13 05:54:12;;;;;;;5.60;2.33;;;;;;;;;;5092742;28;20115;-61
2022/02/13 05:56:38;;;;;;;5.68;2.40;;;;;;;;;;5093614;28;20546;-60
2022/02/13 05:59:04;;;;;;;4.82;2.30;;;;;;;;;;5093523;28;20024;-61
2022/02/13 06:01:30;;;;;;;5.03;2.40;;;;;;;;;;5093345;28;20135;-60
2022/02/13 06:03:56;;;;;;;6.53;2.45;;;;;;;;;;5093338;28;20352;-62
2022/02/13 06:06:22;;;;;;;4.93;2.13;;;;;;;;;;5093358;28;20031;-61
2022/02/13 06:08:48;;;;;;;5.60;2.60;;;;;;;;;;5093337;28;20024;-60
2022/02/13 06:11:14;;;;;;;5.05;2.28;;;;;;;;;;5093196;28;20020;-62
2022/02/13 06:13:40;;;;;;;3.92;1.92;;;;;;;;;;5092986;28;20028;-60
2022/02/13 06:16:07;;;;;;;5.22;2.33;;;;;;;;;;5093029;28;20446;-61
2022/02/13 06:18:34;;;;;;;3.65;2.10;;;;;;;;;;5074879;28;20451;-60
2022/02/13 06:21:00;;;;;;;4.45;2.08;;;;;;;;;;5093080;28;20078;-60
2022/02/13 06:23:26;;;;;;;5.38;2.67;;;;;;;;;;5093010;28;20028;-60
2022/02/13 06:25:53;;;;;;;4.13;2.20;;;;;;;;;;5093348;28;20027;-61
2022/02/13 06:28:19;;;;;;;6.45;2.53;;;;;;;;;;5093072;28;20028;-61
2022/02/13 06:30:45;;;;;;;6.53;2.90;;;;;;;;;;5092929;28;20044;-61
2022/02/13 06:33:11;;;;;;;5.22;2.22;;;;;;;;;;5092550;28;20027;-62
2022/02/13 06:35:37;;;;;;;6.18;2.00;;;;;;;;;;5092378;28;20506;-61
2022/02/13 06:38:03;;;;;;;6.28;2.38;;;;;;;;;;5092712;28;20024;-60
2022/02/13 06:40:30;;;;;;;5.40;2.10;;;;;;;;;;5092820;28;20111;-62
2022/02/13 06:42:56;;;;;;;6.93;1.90;;;;;;;;;;5092550;28;20024;-60
2022/02/13 06:45:22;;;;;;;4.93;2.03;;;;;;;;;;5092563;28;20023;-60
2022/02/13 06:47:48;;;;;;;6.05;2.38;;;;;;;;;;5092626;28;20016;-60
2022/02/13 06:50:14;;;;;;;5.50;2.47;;;;;;;;;;5092508;28;20356;-60
2022/02/13 06:52:40;;;;;;;4.82;2.50;;;;;;;;;;5092374;28;20117;-60
2022/02/13 06:55:06;;;;;;;4.18;2.15;;;;;;;;;;5092173;28;20032;-59
2022/02/13 06:57:33;;;;;;;5.47;2.38;;;;;;;;;;5092397;28;20605;-60
2022/02/13 06:59:59;;;;;;;3.97;2.13;;;;;;;;;;5092197;28;20028;-60
2022/02/13 07:02:25;;;;;;;4.40;2.15;;;;;;;;;;5092108;28;20123;-60
2022/02/13 07:04:51;;;;;;;5.15;1.92;;;;;;;;;;5091641;28;20032;-62
2022/02/13 07:07:17;;;;;;;4.45;2.20;;;;;;;;;;5091839;28;20035;-60
2022/02/13 07:09:43;;;;;;;4.70;2.17;;;;;;;;;;5092136;28;20048;-61
2022/02/13 07:12:09;;;;;;;4.38;2.33;;;;;;;;;;5091944;28;20024;-61
2022/02/13 07:14:36;;;;;;;5.93;2.15;;;;;;;;;;5092028;28;20358;-61
2022/02/13 07:17:02;;;;;;;4.80;2.15;;;;;;;;;;5092153;28;20012;-61
2022/02/13 07:19:28;;;;;;;7.28;2.20;;;;;;;;;;5091968;28;20028;-61
2022/02/13 07:21:54;;;;;;;6.50;2.10;;;;;;;;;;5091874;28;20527;-60
2022/02/13 07:24:21;;;;;;;4.13;2.17;;;;;;;;;;5092129;28;20182;-60
2022/02/13 07:26:47;;;;;;;4.38;1.95;;;;;;;;;;5091872;28;20024;-60
2022/02/13 07:29:13;;;;;;;4.40;2.05;;;;;;;;;;5091807;28;20747;-62
2022/02/13 07:31:40;;;;;;;5.00;2.10;;;;;;;;;;5091764;28;20039;-61
2022/02/13 07:34:06;;;;;;;5.78;2.13;;;;;;;;;;5091798;28;20075;-62
2022/02/13 07:36:33;;;;;;;4.00;1.75;;;;;;;;;;5091700;28;20055;-61
2022/02/13 07:38:59;;;;;;;6.32;2.50;;;;;;;;;;5091790;28;20030;-60
2022/02/13 07:41:26;;;;;;;3.70;1.98;;;;;;;;;;5091730;28;20016;-62
2022/02/13 07:43:52;;;;;;;4.72;2.20;;;;;;;;;;5091752;28;20023;-60
2022/02/13 07:46:19;;;;;;;4.78;2.13;;;;;;;;;;5091777;28;20024;-60
2022/02/13 07:48:45;;;;;;;4.15;2.28;;;;;;;;;;5091615;28;20109;-61
2022/02/13 07:51:11;;;;;;;4.78;2.50;;;;;;;;;;5091651;28;20020;-62
2022/02/13 07:53:38;;;;;;;6.30;2.22;;;;;;;;;;5091342;28;20020;-60
2022/02/13 07:56:04;;;;;;;6.30;2.70;;;;;;;;;;5091332;28;20556;-61
2022/02/13 07:58:32;;;;;;;5.40;2.28;;;;;;;;;;5091401;28;20039;-61
2022/02/13 08:01:02;;;;;;;5.80;2.30;;;;;;;;;;5091276;28;20048;-60
2022/02/13 08:03:28;;;;;;;3.95;2.03;;;;;;;;;;5091255;28;20107;-59
2022/02/13 08:05:54;;;;;;;5.45;2.50;;;;;;;;;;5091389;28;20096;-61
2022/02/13 08:08:20;;;;;;;3.95;1.95;;;;;;;;;;5091517;28;20024;-61
2022/02/13 08:10:46;;;;;;;5.20;2.08;;;;;;;;;;5091487;28;20429;-62
2022/02/13 08:13:16;;;;;;;5.47;1.90;;;;;;;;;;5091225;28;20058;-60
2022/02/13 08:15:42;;;;;;;4.68;2.13;;;;;;;;;;5091778;28;20036;-62
2022/02/13 08:18:09;;;;;;;5.35;2.00;;;;;;;;;;5095463;28;20020;-62
2022/02/13 08:20:36;;;;;;;4.25;1.90;;;;;;;;;;5095476;28;20020;-62
2022/02/13 08:23:02;;;;;;;4.53;1.75;;;;;;;;;;5095400;28;20031;-62
2022/02/13 08:25:28;;;;;;;6.38;2.22;;;;;;;;;;5095520;28;20024;-60
2022/02/13 08:27:54;;;;;;;4.40;2.05;;;;;;;;;;5095309;28;20107;-60
2022/02/13 08:30:21;;;;;;;5.03;2.28;;;;;;;;;;5095324;28;20225;-61
2022/02/13 08:32:47;;;;;;;4.03;2.10;;;;;;;;;;5094825;28;20043;-62
2022/02/13 08:35:13;;;;;;;4.20;2.13;;;;;;;;;;5095014;28;20072;-62
2022/02/13 08:37:40;;;;;;;5.22;2.03;;;;;;;;;;5094986;28;20475;-61
2022/02/13 08:40:07;;;;;;;3.75;1.52;;;;;;;;;;5095012;28;20035;-61
2022/02/13 08:42:33;;;;;;;4.97;2.20;;;;;;;;;;5095038;28;20028;-62
2022/02/13 08:44:59;;;;;;;4.78;2.10;;;;;;;;;;5094947;28;20024;-62
2022/02/13 08:47:25;;;;;;;4.25;1.88;;;;;;;;;;5094906;28;20028;-62
2022/02/13 08:49:51;;;;;;;5.72;2.13;;;;;;;;;;5094712;28;20487;-62
2022/02/13 08:52:18;;;;;;;5.50;2.40;;;;;;;;;;5094717;28;20465;-62
2022/02/13 08:54:44;;;;;;;5.93;2.50;;;;;;;;;;5095004;28;20481;-60
2022/02/13 08:57:10;;;;;;;6.05;2.33;;;;;;;;;;5094779;28;20056;-62
2022/02/13 08:59:36;;;;;;;4.75;2.30;;;;;;;;;;5094735;28;20413;-60
2022/02/13 09:02:03;;;;;;;4.60;2.28;;;;;;;;;;5094626;28;20168;-62
2022/02/13 09:04:30;;;;;;;5.28;2.13;;;;;;;;;;5094550;28;20108;-63
2022/02/13 09:07:00;;;;;;;4.47;2.30;;;;;;;;;;5094534;28;20027;-62
2022/02/13 09:09:26;;;;;;;5.10;2.60;;;;;;;;;;5094479;28;20024;-61
2022/02/13 09:11:52;;;;;;;4.70;2.22;;;;;;;;;;5094377;28;20584;-62
2022/02/13 09:14:18;;;;;;;4.45;2.35;;;;;;;;;;5094193;28;20505;-62
2022/02/13 09:16:44;;;;;;;5.05;2.13;;;;;;;;;;5094357;28;20110;-63
2022/02/13 09:19:11;;;;;;;4.63;2.13;;;;;;;;;;5094167;28;20027;-60
2022/02/13 09:21:37;;;;;;;4.28;2.22;;;;;;;;;;5093965;28;20020;-62
2022/02/13 09:24:04;;;;;;;4.70;2.15;;;;;;;;;;5093981;28;20016;-62
2022/02/13 09:26:30;;;;;;;6.30;2.22;;;;;;;;;;5075558;28;20024;-60
2022/02/13 09:28:58;;;;;;;5.20;2.38;;;;;;;;;;5093861;28;20028;-62
2022/02/13 09:31:24;;;;;;;5.88;2.30;;;;;;;;;;5094015;28;20024;-62
2022/02/13 09:33:50;;;;;;;4.95;2.28;;;;;;;;;;5093717;28;20028;-62
2022/02/13 09:36:19;;;;;;;4.95;2.20;;;;;;;;;;5093852;28;20491;-61
2022/02/13 09:38:46;;;;;;;4.57;2.15;;;;;;;;;;5093930;28;20027;-62
2022/02/13 09:41:13;;;;;;;4.75;2.20;;;;;;;;;;5093876;28;20107;-63
2022/02/13 09:43:39;;;;;;;4.55;2.20;;;;;;;;;;5093767;28;20094;-62
2022/02/13 09:46:06;;;;;;;5.18;2.20;;;;;;;;;;5093846;28;20029;-62
2022/02/13 09:48:32;;;;;;;4.68;2.47;;;;;;;;;;5093782;28;20031;-62
2022/02/13 09:50:59;;;;;;;5.22;2.15;;;;;;;;;;5093560;28;20031;-62
2022/02/13 09:53:27;;;;;;;6.50;2.70;;;;;;;;;;5093502;28;20555;-60
2022/02/13 09:55:54;;;;;;;5.13;2.55;;;;;;;;;;5093591;28;20092;-62
2022/02/13 09:58:20;;;;;;;5.38;2.50;;;;;;;;;;5093399;28;20025;-64
2022/02/13 10:00:52;;;;;;;5.18;2.35;;;;;;;;;;5093247;28;20123;-61
2022/02/13 10:03:18;;;;;;;5.20;2.35;;;;;;;;;;5093457;28;20024;-61
2022/02/13 10:05:44;;;;;;;4.28;2.10;;;;;;;;;;5093380;28;20059;-62
2022/02/13 10:08:10;;;;;;;5.50;2.40;;;;;;;;;;5093552;28;20081;-62
2022/02/13 10:10:36;;;;;;;3.88;2.10;;;;;;;;;;5094642;28;20081;-60
2022/02/13 10:13:04;;;;;;;5.55;2.80;;;;;;;;;;5094590;28;20024;-61
2022/02/13 10:15:33;;;;;;;4.63;2.38;;;;;;;;;;5093634;28;20039;-62
2022/02/13 10:18:00;;;;;;;5.32;2.63;;;;;;;;;;5093187;28;20060;-63
2022/02/13 10:20:27;;;;;;;4.82;2.25;;;;;;;;;;5093103;28;20097;-62
2022/02/13 10:22:53;;;;;;;3.85;2.00;;;;;;;;;;5093087;28;20059;-63
2022/02/13 10:25:19;;;;;;;5.05;2.50;;;;;;;;;;5092967;28;20074;-63
2022/02/13 10:27:46;;;;;;;5.35;2.13;;;;;;;;;;5092975;28;20020;-62
2022/02/13 10:30:12;;;;;;;5.68;2.70;;;;;;;;;;5092898;28;20062;-61
2022/02/13 10:32:42;;;;;;;4.45;2.33;;;;;;;;;;5092891;28;20027;-63
2022/02/13 10:35:10;;;;;;;4.80;2.50;;;;;;;;;;5092742;28;20448;-63
2022/02/13 10:37:36;;;;;;;6.60;2.92;;;;;;;;;;5092635;28;20107;-62
2022/02/13 10:40:03;;;;;;;6.00;2.78;;;;;;;;;;5091910;28;20059;-62
2022/02/13 10:42:31;;;;;;;7.60;2.78;;;;;;;;;;5092586;28;20044;-60
2022/02/13 10:45:18;;;;;;;4.72;2.65;;;;;;;;;;5092579;28;20386;-62
2022/02/13 10:47:45;;;;;;;5.85;2.50;;;;;;;;;;5079242;28;20110;-62
2022/02/13 10:50:11;;;;;;;6.43;2.65;;;;;;;;;;5092591;28;20027;-60
2022/02/13 10:52:38;;;;;;;6.10;3.00;;;;;;;;;;5092441;28;20055;-62
2022/02/13 10:55:04;;;;;;;6.15;3.05;;;;;;;;;;5092378;28;20066;-62
2022/02/13 10:57:31;;;;;;;5.57;2.72;;;;;;;;;;5092426;28;20471;-61
2022/02/13 10:59:57;;;;;;;5.45;2.90;;;;;;;;;;5092464;28;20020;-61
2022/02/13 11:02:25;;;;;;;5.03;2.80;;;;;;;;;;5091910;28;20040;-62
2022/02/13 11:04:52;;;;;;;6.88;3.13;;;;;;;;;;5091955;28;20024;-62
2022/02/13 11:07:19;;;;;;;5.45;3.13;;;;;;;;;;5092113;28;20016;-59
2022/02/13 11:09:46;;;;;;;6.97;3.22;;;;;;;;;;5092214;28;20073;-62
2022/02/13 11:12:16;;;;;;;6.55;3.13;;;;;;;;;;5092120;28;20099;-61
2022/02/13 11:14:47;;;;;;;5.18;2.83;;;;;;;;;;5091993;28;20074;-60
2022/02/13 11:17:26;;;;;;;5.97;3.00;;;;;;;;;;5091879;28;20052;-59
2022/02/13 11:19:52;;;;;;;5.47;3.00;;;;;;;;;;5092145;28;20024;-62
2022/02/13 11:22:18;;;;;;;6.00;3.20;;;;;;;;;;5091829;28;20090;-61
2022/02/13 11:24:48;;;;;;;6.63;3.00;;;;;;;;;;5091889;28;20028;-62
2022/02/13 11:27:20;;;;;;;6.00;3.25;;;;;;;;;;5091855;28;20020;-62
2022/02/13 11:29:46;;;;;;;;;;;;;;;;;;5092109;28;20027;-62
2022/02/13 11:32:31;;;;;;;6.13;3.00;;;;;;;;;;5091668;28;20301;-59
2022/02/13 11:34:57;;;;;;;5.38;3.22;;;;;;;;;;5091593;28;20040;-62
2022/02/13 11:37:24;;;;;;;6.97;3.78;;;;;;;;;;5091646;28;20024;-61
2022/02/13 11:39:51;;;;;;;5.35;3.10;;;;;;;;;;5091584;28;20032;-62
2022/02/13 11:42:21;;;;;;;6.60;3.47;;;;;;;;;;5091605;28;20467;-62
2022/02/13 11:44:49;;;;;;;6.68;3.35;;;;;;;;;;5091664;28;20028;-62
2022/02/13 11:47:19;;;;;;;5.53;3.38;;;;;;;;;;5091604;28;20020;-62
2022/02/13 11:50:09;;;;;;;6.65;3.40;;;;;;;;;;5091528;28;20085;-59
2022/02/13 11:52:36;;;;;;;7.30;3.67;;;;;;;;;;5091431;28;20024;-62
2022/02/13 11:55:13;;;;;;;6.43;3.08;;;;;;;;;;5091485;28;20391;-61
2022/02/13 11:57:52;;;;;;;5.35;2.92;;;;;;;;;;5091563;28;20472;-62
2022/02/13 12:00:18;;;;;;;5.82;2.53;;;;;;;;;;5091255;28;20421;-60
2022/02/13 12:02:48;;;;;;;4.85;2.85;;;;;;;;;;5091555;28;20081;-62
2022/02/13 12:05:17;;;;;;;4.88;2.70;;;;;;;;;;5091449;28;20016;-60
2022/02/13 12:07:57;;;;;;;5.03;2.42;;;;;;;;;;5091479;28;20012;-61
2022/02/13 12:10:28;;;;;;;5.13;2.40;;;;;;;;;;5091434;28;20024;-62
2022/02/13 12:13:04;;;;;;;6.18;2.70;;;;;;;;;;5091151;28;20020;-60
2022/02/13 12:15:30;;;;;;;4.45;2.67;;;;;;;;;;5091069;28;20028;-62
2022/02/13 12:18:09;;;;;;;6.18;2.95;;;;;;;;;;5091347;28;20116;-60
2022/02/13 12:20:36;;;;;;;6.28;2.72;;;;;;;;;;5091356;28;20111;-61
2022/02/13 12:23:03;;;;;;;4.47;2.70;;;;;;;;;;5091213;28;20142;-62
2022/02/13 12:25:37;;;;;;;5.90;3.10;;;;;;;;;;5091173;28;20024;-60
2022/02/13 12:28:04;;;;;;;7.50;2.80;;;;;;;;;;5091084;28;20046;-61
2022/02/13 12:30:30;;;;;;;6.50;3.00;;;;;;;;;;5091302;28;20021;-61
2022/02/13 12:33:01;;;;;;;6.75;3.35;;;;;;;;;;5091130;28;20019;-61
2022/02/13 12:35:31;;;;;;;4.93;2.90;;;;;;;;;;5091285;28;20650;-62
2022/02/13 12:37:58;;;;;;;5.95;3.03;;;;;;;;;;5091200;28;20052;-61
2022/02/13 12:40:28;;;;;;;5.20;2.88;;;;;;;;;;5090956;28;20371;-59
2022/02/13 12:42:56;;;;;;;5.97;3.05;;;;;;;;;;5090883;28;20036;-62
2022/02/13 12:45:23;;;;;;;5.07;2.53;;;;;;;;;;5091024;28;20055;-61
2022/02/13 12:47:58;;;;;;;4.38;2.33;;;;;;;;;;5091013;28;20012;-62
2022/02/13 12:50:26;;;;;;;4.32;2.75;;;;;;;;;;5091076;28;20102;-61
2022/02/13 12:52:56;;;;;;;5.55;3.10;;;;;;;;;;5090990;28;20058;-61
2022/02/13 12:55:23;;;;;;;5.05;2.85;;;;;;;;;;5090864;28;20111;-59
2022/02/13 12:57:52;;;;;;;5.78;3.10;;;;;;;;;;5090942;28;20112;-61
2022/02/13 13:00:18;;;;;;;5.93;2.70;;;;;;;;;;5090946;28;20023;-62
2022/02/13 13:03:00;;;;;;;5.43;2.70;;;;;;;;;;5092945;28;20028;-61
2022/02/13 13:05:30;;;;;;;5.47;2.50;;;;;;;;;;5094630;28;20024;-62
2022/02/13 13:08:08;;;;;;;5.90;2.80;;;;;;;;;;5094576;28;20028;-61
2022/02/13 13:10:34;;;;;;;5.40;2.65;;;;;;;;;;5094529;28;20020;-62
2022/02/13 13:13:08;;;;;;;5.18;2.70;;;;;;;;;;5094269;28;20020;-61
2022/02/13 13:15:37;;;;;;;4.38;2.40;;;;;;;;;;5094111;28;20028;-62
2022/02/13 13:18:04;;;;;;;5.32;2.92;;;;;;;;;;5094157;28;20123;-60
2022/02/13 13:20:34;;;;;;;6.50;2.72;;;;;;;;;;5094267;28;20058;-62
2022/02/13 13:23:10;;;;;;;4.93;2.78;;;;;;;;;;5093980;28;20486;-61
2022/02/13 13:25:36;;;;;;;6.13;2.58;;;;;;;;;;5094074;28;20547;-60
2022/02/13 13:28:06;;;;;;;5.05;2.47;;;;;;;;;;5094086;28;20073;-60
2022/02/13 13:30:34;;;;;;;5.13;2.72;;;;;;;;;;5093924;28;20026;-62
2022/02/13 13:33:01;;;;;;;6.38;2.83;;;;;;;;;;5094072;28;20493;-62
2022/02/13 13:35:28;;;;;;;4.95;2.55;;;;;;;;;;5093958;28;20032;-62
2022/02/13 13:37:54;;;;;;;4.72;2.70;;;;;;;;;;5093782;28;20027;-59
2022/02/13 13:40:25;;;;;;;5.45;2.50;;;;;;;;;;5093554;28;20020;-60
2022/02/13 13:42:57;;;;;;;6.95;3.30;;;;;;;;;;5093787;28;20028;-61
2022/02/13 13:45:27;;;;;;;4.57;2.45;;;;;;;;;;5093847;28;20031;-62
2022/02/13 13:47:54;;;;;;;10.30;2.85;;;;;;;;;;5093707;28;20379;-61
2022/02/13 13:50:24;;;;;;;4.97;2.72;;;;;;;;;;5093688;28;20024;-60
2022/02/13 13:52:51;;;;;;;5.57;3.20;;;;;;;;;;5093529;28;20031;-60
2022/02/13 13:55:17;;;;;;;4.38;2.40;;;;;;;;;;5093393;28;20058;-62
2022/02/13 13:57:44;;;;;;;6.32;2.90;;;;;;;;;;5093383;28;20019;-62
2022/02/13 14:00:11;;;;;;;4.35;2.80;;;;;;;;;;5093434;28;20028;-62
2022/02/13 14:02:51;;;;;;;5.28;2.90;;;;;;;;;;5073195;28;20488;-60
2022/02/13 14:05:18;;;;;;;6.00;2.70;;;;;;;;;;5073004;28;20583;-61
2022/02/13 14:07:44;;;;;;;4.78;2.88;;;;;;;;;;5072828;28;20036;-61
2022/02/13 14:10:10;;;;;;;7.03;2.75;;;;;;;;;;5072546;28;20050;-60
2022/02/13 14:12:36;;;;;;;6.45;3.47;;;;;;;;;;5072825;28;20044;-62
2022/02/13 14:15:03;;;;;;;5.00;2.50;;;;;;;;;;5071974;28;20075;-60
2022/02/13 14:17:29;;;;;;;4.47;2.55;;;;;;;;;;5073138;28;20024;-59
2022/02/13 14:19:55;;;;;;;4.80;2.50;;;;;;;;;;5072741;28;20081;-62
2022/02/13 14:22:21;;;;;;;4.43;2.67;;;;;;;;;;5072634;28;20408;-61
2022/02/13 14:24:47;;;;;;;5.32;2.63;;;;;;;;;;5072558;28;20021;-60
2022/02/13 14:27:13;;;;;;;6.47;2.90;;;;;;;;;;5072634;28;20467;-60
2022/02/13 14:29:39;;;;;;;4.75;2.60;;;;;;;;;;5072578;28;20112;-60
2022/02/13 14:32:06;;;;;;;4.88;2.70;;;;;;;;;;5072551;28;20020;-61
2022/02/13 14:34:32;;;;;;;5.45;2.80;;;;;;;;;;5072411;28;20059;-59
2022/02/13 14:36:59;;;;;;;5.45;2.90;;;;;;;;;;5072510;28;20479;-62
2022/02/13 14:39:25;;;;;;;5.55;2.60;;;;;;;;;;5072262;28;20566;-61
2022/02/13 14:41:51;;;;;;;6.40;2.83;;;;;;;;;;5072473;28;20016;-61